עמוד ראשי
METAR-TAF:

METAR-TAF

שדות תעופה :

גואטמלה סיטי, גואטמלה

קו רוחב: 14-35N, קו אורך: 090-31W, גובה: 1489מטר

תצפית מזג אוויר נוכחית

הדו"ח נערך לפני 20דקות, בשעה 08:00 UTC
רוח 12קשר מכיוון צפון/צפון-מזרח
טמפרטורת 18 צלסיוס
לחות 88%
לחץ 1022 hPa
ראות 10 קילומטר או יותר
עננים בינוניים בגובה 1200רגל

METAR: MGGT 290800Z 03012KT 9999 BKN012 18/16 Q1022 A3018

זמן: 02:20 (08:20 UTC)

תחזית

הדו"ח נערך לפני 3 שעות ו 20דקות, בשעה 05:00 UTC
תחזית בתוקף מ 29 ב 06 UTC עד 01 ב 06 UTC
רוח 10קשר מכיוון צפון/צפון-מזרח
ראות 10 קילומטר או יותר
ללא עננים שבסיסם נמוך מ 5000 רגל או קומולונימבוס
יעשה מ
29 ב 16 UTC עד 29 ב 18 UTC
מעט עננים בגובה 2000רגל
יעשה מ
01 ב 02 UTC עד 01 ב 04 UTC
ראות 10 קילומטר או יותר
ללא עננים שבסיסם נמוך מ 5000 רגל או קומולונימבוס

TAF: MGGT 290500Z 2906/0106 02010KT CAVOK TX29/2920Z TN15/2912Z BECMG 2916/2918 FEW020 BECMG 0102/0104 CAVOK

תצפיות ותחזיות מזג אוויר לגבי יותר מ- 4,000 שדות תעופה ברחבי העולם. דוחות METAR ו- TAF.

התחנות הזמינות מסומנות בנקודות צהובות ואדומות על גבי המפה.

העבר את העכבר לנקודה הצבעונית על מנת לראות את שם התחנה.

לאחר מכן, לחץ כדי לראות את תוכן ואת תחזיות מזג האוויר.

כדי לשנות את המפה: לחץ על הכפתורים הירוקים עם הפלוס השחור כדי להתקרב; על הכפתור הירוק עם המקף כדי להתרחק; או בחיצים הירוקים למפות סמוכות.


METAR-TAF: